Time;durP1;ratioP1;P1;durP2;ratioP2;P2;SDS_P1;SDS_P2;PMS_P1;PMS_P2;Temp;Humidity;BMP_temperature;BMP_pressure;BME280_temperature;BME280_humidity;BME280_pressure;Samples;Min_cycle;Max_cycle;Signal;HPM_P1;HPM_P2
2023/01/24 00:02:20;;;;;;;22.30;12.80;;;3.40;99.90;;;;;;5052523;28;20080;-67
2023/01/24 00:04:46;;;;;;;20.83;12.63;;;3.30;99.90;;;;;;5070198;28;20040;-66
2023/01/24 00:07:12;;;;;;;20.55;12.63;;;;;;;;;;5052329;28;20048;-67
2023/01/24 00:09:38;;;;;;;22.63;13.02;;;;;;;;;;5070182;28;20492;-67
2023/01/24 00:12:04;;;;;;;22.55;13.68;;;;;;;;;;5052074;28;20060;-66
2023/01/24 00:14:30;;;;;;;20.35;11.88;;;;;;;;;;5052110;28;20044;-67
2023/01/24 00:16:56;;;;;;;19.77;12.40;;;3.40;99.90;;;;;;5070119;28;20043;-67
2023/01/24 00:19:22;;;;;;;21.00;12.63;;;;;;;;;;5052221;28;20044;-67
2023/01/24 00:21:48;;;;;;;23.92;12.68;;;;;;;;;;5056556;28;20056;-68
2023/01/24 00:24:14;;;;;;;23.63;13.20;;;;;;;;;;5064217;28;20045;-68
2023/01/24 00:26:40;;;;;;;22.30;13.32;;;;;;;;;;5043898;28;20136;-67
2023/01/24 00:29:05;;;;;;;22.10;13.88;;;3.30;99.90;;;;;;5051759;28;20474;-67
2023/01/24 00:31:31;;;;;;;21.55;13.95;;;3.30;99.90;;;;;;5051794;28;20051;-67
2023/01/24 00:33:56;;;;;;;22.58;13.15;;;3.30;99.90;;;;;;5069737;28;20409;-67
2023/01/24 00:36:22;;;;;;;22.90;13.88;;;;;;;;;;5069827;28;20047;-67
2023/01/24 00:38:48;;;;;;;24.23;13.85;;;;;;;;;;5035368;28;20425;-68
2023/01/24 00:41:14;;;;;;;23.20;13.05;;;;;;;;;;5069938;28;20044;-67
2023/01/24 00:43:40;;;;;;;21.10;13.13;;;3.30;99.90;;;;;;5069520;28;20448;-67
2023/01/24 00:46:07;;;;;;;22.67;13.35;;;3.20;99.90;;;;;;5051464;28;20086;-67
2023/01/24 00:48:34;;;;;;;26.38;13.68;;;;;;;;;;5051632;28;20055;-66
2023/01/24 00:51:00;;;;;;;21.75;12.57;;;;;;;;;;5069547;28;20056;-68
2023/01/24 00:53:26;;;;;;;22.30;13.15;;;3.20;99.90;;;;;;5051471;28;20045;-67
2023/01/24 00:55:54;;;;;;;20.85;13.02;;;;;;;;;;5069117;28;20037;-67
2023/01/24 00:58:20;;;;;;;22.85;13.27;;;;;;;;;;5055824;28;20064;-67
2023/01/24 01:00:46;;;;;;;21.35;13.18;;;3.20;99.90;;;;;;5051693;28;20048;-67
2023/01/24 01:03:14;;;;;;;21.00;12.60;;;;;;;;;;5055375;28;20482;-66
2023/01/24 01:05:41;;;;;;;23.50;13.88;;;3.40;99.90;;;;;;5069416;28;20127;-67
2023/01/24 01:08:06;;;;;;;21.58;13.55;;;3.20;99.90;;;;;;5051342;28;20478;-67
2023/01/24 01:10:32;;;;;;;22.73;13.18;;;;;;;;;;5069159;28;20141;-66
2023/01/24 01:12:58;;;;;;;24.52;13.88;;;;;;;;;;5069050;28;20574;-67
2023/01/24 01:15:24;;;;;;;23.17;14.18;;;;;;;;;;5051138;28;20138;-67
2023/01/24 01:17:50;;;;;;;24.83;13.60;;;;;;;;;;5051238;28;20051;-67
2023/01/24 01:20:16;;;;;;;26.00;13.88;;;3.20;99.90;;;;;;5051263;28;20559;-67
2023/01/24 01:22:41;;;;;;;23.35;13.73;;;3.40;99.90;;;;;;5051068;28;20072;-67
2023/01/24 01:25:08;;;;;;;20.50;12.77;;;;;;;;;;5069157;28;20441;-67
2023/01/24 01:27:34;;;;;;;24.50;13.90;;;;;;;;;;5050712;28;20072;-68
2023/01/24 01:30:00;;;;;;;22.67;13.70;;;;;;;;;;5069272;28;20059;-66
2023/01/24 01:32:26;;;;;;;22.98;13.68;;;;;;;;;;5034030;28;20070;-67
2023/01/24 01:34:51;;;;;;;23.10;12.70;;;3.30;99.90;;;;;;5050802;28;20047;-67
2023/01/24 01:37:17;;;;;;;22.20;12.98;;;3.30;99.90;;;;;;5049538;28;20040;-67
2023/01/24 01:39:42;;;;;;;22.58;13.40;;;3.30;99.90;;;;;;5056085;28;20028;-66
2023/01/24 01:42:08;;;;;;;23.10;13.57;;;;;;;;;;5068535;28;20071;-66
2023/01/24 01:44:41;;;;;;;21.33;13.30;;;;;;;;;;5050309;28;20472;-67
2023/01/24 01:47:27;;;;;;;24.77;14.38;;;3.50;99.90;;;;;;5068924;28;20052;-67
2023/01/24 01:49:56;;;;;;;24.00;12.75;;;;;;;;;;5037806;28;20382;-67
2023/01/24 01:52:24;;;;;;;24.67;14.55;;;;;;;;;;5068554;28;20044;-67
2023/01/24 01:54:51;;;;;;;23.67;13.57;;;;;;;;;;5050613;28;20059;-67
2023/01/24 01:57:22;;;;;;;23.95;14.10;;;3.30;99.90;;;;;;5068749;28;20040;-66
2023/01/24 01:59:56;;;;;;;23.67;13.63;;;;;;;;;;5036442;28;20032;-66
2023/01/24 02:02:23;;;;;;;23.38;13.98;;;3.40;99.90;;;;;;5050433;28;20044;-67
2023/01/24 02:04:54;;;;;;;21.50;13.63;;;3.20;99.90;;;;;;5068538;28;20097;-66
2023/01/24 02:07:26;;;;;;;24.85;13.45;;;;;;;;;;5068097;28;20378;-67
2023/01/24 02:09:54;;;;;;;24.23;12.40;;;;;;;;;;5068836;28;20040;-67
2023/01/24 02:12:33;;;;;;;29.02;14.57;;;3.30;99.90;;;;;;5068663;28;20081;-68
2023/01/24 02:17:46;;;;;;;22.30;13.65;;;;;;;;;;5038874;28;20076;-68
2023/01/24 02:20:17;;;;;;;24.60;13.68;;;3.50;99.90;;;;;;5050448;28;20053;-68
2023/01/24 02:22:56;;;;;;;23.98;13.88;;;;;;;;;;5068475;28;20115;-67
2023/01/24 02:25:25;;;;;;;23.50;13.73;;;;;;;;;;5050239;28;20091;-68
2023/01/24 02:27:51;;;;;;;22.15;13.65;;;;;;;;;;5068434;28;20032;-67
2023/01/24 02:30:17;;;;;;;23.70;13.38;;;;;;;;;;5050174;28;20497;-68
2023/01/24 02:32:43;;;;;;;24.30;13.57;;;3.30;99.90;;;;;;5049761;28;20036;-67
2023/01/24 02:35:22;;;;;;;22.27;14.77;;;;;;;;;;5051613;28;20040;-67
2023/01/24 02:37:47;;;;;;;23.63;14.07;;;3.30;99.90;;;;;;5044711;28;20120;-67
2023/01/24 02:40:13;;;;;;;25.33;13.57;;;3.40;99.90;;;;;;5059297;28;20127;-67
2023/01/24 02:42:39;;;;;;;21.60;13.45;;;;;;;;;;5067742;28;20056;-67
2023/01/24 02:45:05;;;;;;;20.45;13.57;;;;;;;;;;5050007;28;20405;-68
2023/01/24 02:47:34;;;;;;;21.83;13.68;;;;;;;;;;5068036;28;20482;-67
2023/01/24 02:50:01;;;;;;;23.55;14.15;;;;;;;;;;5060268;28;20118;-68
2023/01/24 02:55:12;;;;;;;20.05;12.85;;;;;;;;;;5056500;28;20041;-68
2023/01/24 03:00:22;;;;;;;25.00;13.68;;;;;;;;;;5068013;28;20049;-67
2023/01/24 03:02:48;;;;;;;22.52;12.98;;;3.20;99.90;;;;;;5067691;28;20051;-67
2023/01/24 03:05:14;;;;;;;22.48;14.27;;;3.30;99.90;;;;;;5067845;28;20429;-67
2023/01/24 03:07:44;;;;;;;22.63;14.07;;;;;;;;;;5067548;28;20041;-66
2023/01/24 03:10:11;;;;;;;22.15;13.35;;;;;;;;;;5067873;28;20049;-67
2023/01/24 03:34:38;;;;;;;19.83;12.05;;;;;;;;;;5070917;28;20040;-67
2023/01/24 03:37:03;;;;;;;20.85;12.18;;;3.40;99.90;;;;;;5070911;28;20182;-68
2023/01/24 03:42:13;;;;;;;19.30;12.02;;;;;;;;;;5046349;28;20056;-68
2023/01/24 03:44:39;;;;;;;19.67;11.43;;;3.30;99.90;;;;;;5052799;28;20119;-67
2023/01/24 03:47:04;;;;;;;18.17;11.13;;;3.40;99.90;;;;;;5053052;28;20036;-67
2023/01/24 03:52:31;;;;;;;17.70;11.38;;;;;;;;;;5070372;28;20049;-66
2023/01/24 03:54:57;;;;;;;21.48;11.98;;;;;;;;;;5050664;28;20032;-68
2023/01/24 03:57:24;;;;;;;19.98;12.02;;;;;;;;;;5063101;28;20041;-68
2023/01/24 03:59:50;;;;;;;21.15;12.00;;;;;;;;;;5068354;28;20036;-67
2023/01/24 04:02:16;;;;;;;17.60;11.88;;;;;;;;;;5070317;28;20056;-66
2023/01/24 04:07:27;;;;;;;18.38;11.55;;;;;;;;;;5062103;28;20498;-67
2023/01/24 04:09:53;;;;;;;21.50;12.93;;;;;;;;;;5070677;28;20098;-68
2023/01/24 04:12:20;;;;;;;21.63;12.82;;;3.30;99.90;;;;;;5070255;28;20424;-67
2023/01/24 04:14:45;;;;;;;20.60;12.50;;;3.40;99.90;;;;;;5070307;28;20094;-66
2023/01/24 04:17:11;;;;;;;19.92;12.48;;;;;;;;;;5070030;28;20048;-67
2023/01/24 04:19:37;;;;;;;21.75;12.98;;;;;;;;;;5069742;28;20405;-67
2023/01/24 04:22:03;;;;;;;22.92;13.25;;;;;;;;;;5051577;28;20125;-67
2023/01/24 04:24:29;;;;;;;20.42;12.98;;;;;;;;;;5051902;28;20044;-68
2023/01/24 04:26:55;;;;;;;20.67;12.70;;;3.30;99.90;;;;;;5070168;28;20040;-67
2023/01/24 04:29:20;;;;;;;23.20;13.52;;;3.30;99.90;;;;;;5051613;28;20166;-66
2023/01/24 04:31:46;;;;;;;20.33;13.25;;;;;;;;;;5069473;28;20045;-67
2023/01/24 04:34:12;;;;;;;23.98;12.95;;;;;;;;;;5051888;28;20490;-67
2023/01/24 04:36:38;;;;;;;22.55;11.80;;;;;;;;;;5055981;28;20039;-67
2023/01/24 04:39:04;;;;;;;22.80;13.57;;;;;;;;;;5051880;28;20051;-66
2023/01/24 04:41:30;;;;;;;22.90;13.63;;;3.40;99.90;;;;;;5051959;28;20127;-66
2023/01/24 04:43:55;;;;;;;25.77;13.57;;;3.40;99.90;;;;;;5051534;28;20053;-67
2023/01/24 04:46:21;;;;;;;24.95;15.20;;;;;;;;;;5051607;28;20052;-67
2023/01/24 04:48:47;;;;;;;21.45;13.23;;;;;;;;;;5069937;28;20071;-66
2023/01/24 04:51:13;;;;;;;24.50;11.68;;;;;;;;;;5051518;28;20125;-67
2023/01/24 04:53:40;;;;;;;22.50;13.73;;;;;;;;;;5069712;28;20424;-67
2023/01/24 04:56:06;;;;;;;22.33;13.35;;;3.50;99.90;;;;;;5069713;28;20046;-67
2023/01/24 04:58:32;;;;;;;22.63;12.80;;;;;;;;;;5069415;28;20123;-66
2023/01/24 05:00:58;;;;;;;24.88;14.60;;;;;;;;;;5069517;28;20045;-67
2023/01/24 05:03:24;;;;;;;22.25;13.32;;;;;;;;;;5069513;28;20040;-68
2023/01/24 05:05:51;;;;;;;22.67;13.77;;;3.40;99.90;;;;;;5069535;28;20064;-66
2023/01/24 05:08:17;;;;;;;22.83;14.30;;;;;;;;;;5069388;28;20032;-66
2023/01/24 05:10:43;;;;;;;21.80;13.10;;;3.40;99.90;;;;;;5065493;28;20494;-66
2023/01/24 05:13:09;;;;;;;24.13;13.02;;;;;;;;;;5051315;28;20054;-67
2023/01/24 05:15:35;;;;;;;20.77;13.10;;;;;;;;;;5069195;28;20028;-67
2023/01/24 05:18:04;;;;;;;24.00;14.70;;;;;;;;;;5051315;28;20040;-67
2023/01/24 05:20:30;;;;;;;23.90;13.15;;;;;;;;;;5037287;28;20063;-67
2023/01/24 05:22:57;;;;;;;21.85;12.88;;;;;;;;;;5026422;28;20478;-66
2023/01/24 05:25:23;;;;;;;23.90;14.05;;;;;;;;;;5045403;28;20101;-68
2023/01/24 05:27:50;;;;;;;24.90;14.52;;;3.20;99.90;;;;;;5051135;28;20516;-67
2023/01/24 05:30:16;;;;;;;18.58;10.90;;;;;;;;;;5051010;28;20040;-67
2023/01/24 05:32:43;;;;;;;19.48;11.27;;;;;;;;;;5050798;28;20048;-67
2023/01/24 05:35:08;;;;;;;20.15;11.30;;;3.40;99.90;;;;;;5069049;28;20080;-67
2023/01/24 05:37:38;;;;;;;20.48;12.18;;;;;;;;;;5069272;28;20476;-67
2023/01/24 05:40:04;;;;;;;22.80;13.02;;;;;;;;;;5051220;28;20599;-67
2023/01/24 05:42:30;;;;;;;17.35;9.45;;;;;;;;;;5049773;28;20070;-67
2023/01/24 05:44:56;;;;;;;21.80;12.23;;;;;;;;;;5069273;28;20045;-67
2023/01/24 05:47:23;;;;;;;22.98;11.13;;;;;;;;;;5068948;28;20094;-67
2023/01/24 05:49:49;;;;;;;20.95;12.77;;;;;;;;;;5064963;28;20080;-67
2023/01/24 05:52:21;;;;;;;18.98;11.63;;;;;;;;;;5068634;28;20513;-67
2023/01/24 05:54:50;;;;;;;23.45;12.82;;;;;;;;;;5050548;28;20041;-66
2023/01/24 05:57:16;;;;;;;22.23;12.38;;;;;;;;;;5068718;28;20109;-67
2023/01/24 05:59:42;;;;;;;20.70;12.50;;;3.20;99.90;;;;;;5068731;28;20046;-66
2023/01/24 06:02:08;;;;;;;18.70;11.38;;;;;;;;;;5050797;28;20052;-66
2023/01/24 06:04:34;;;;;;;20.23;11.55;;;;;;;;;;5068468;28;20048;-67
2023/01/24 06:07:00;;;;;;;17.80;11.35;;;;;;;;;;5033699;28;20092;-68
2023/01/24 06:09:26;;;;;;;19.40;11.25;;;;;;;;;;5068443;28;20051;-68
2023/01/24 06:11:52;;;;;;;18.48;10.63;;;;;;;;;;5068287;28;20493;-66
2023/01/24 06:14:18;;;;;;;14.95;9.07;;;;;;;;;;5068294;28;20048;-67
2023/01/24 06:16:44;;;;;;;17.60;10.85;;;3.00;99.90;;;;;;5068341;28;20063;-67
2023/01/24 06:19:11;;;;;;;18.70;10.60;;;;;;;;;;5050436;28;20113;-67
2023/01/24 06:21:40;;;;;;;20.98;11.32;;;;;;;;;;5068514;28;20045;-66
2023/01/24 06:24:08;;;;;;;23.30;12.13;;;;;;;;;;5050532;28;20749;-67
2023/01/24 06:26:34;;;;;;;17.65;11.38;;;3.10;99.90;;;;;;5050270;28;20447;-67
2023/01/24 06:29:00;;;;;;;15.60;10.35;;;;;;;;;;5062961;28;20048;-67
2023/01/24 06:31:36;;;;;;;18.70;10.48;;;;;;;;;;5068320;28;20064;-67
2023/01/24 06:34:20;;;;;;;18.75;10.75;;;;;;;;;;5050081;28;20057;-67
2023/01/24 06:36:56;;;;;;;19.23;11.38;;;;;;;;;;5068302;28;20138;-68
2023/01/24 06:39:22;;;;;;;17.20;10.68;;;;;;;;;;5068438;28;20063;-68
2023/01/24 06:41:48;;;;;;;15.60;10.02;;;;;;;;;;5068211;28;20048;-67
2023/01/24 06:44:15;;;;;;;18.33;11.02;;;;;;;;;;5050035;28;20092;-67
2023/01/24 06:46:41;;;;;;;18.65;10.23;;;;;;;;;;5068179;28;20043;-67
2023/01/24 06:49:07;;;;;;;18.10;10.57;;;;;;;;;;5050093;28;20052;-67
2023/01/24 06:51:33;;;;;;;18.70;10.07;;;;;;;;;;5067902;28;20037;-67
2023/01/24 06:54:00;;;;;;;15.18;9.05;;;;;;;;;;5060222;28;20480;-67
2023/01/24 06:56:26;;;;;;;18.20;8.82;;;;;;;;;;5072010;28;20036;-67
2023/01/24 06:58:52;;;;;;;15.57;9.82;;;;;;;;;;5053433;28;20059;-67
2023/01/24 07:01:18;;;;;;;16.15;10.27;;;;;;;;;;5053714;28;20425;-66
2023/01/24 07:03:44;;;;;;;18.63;9.85;;;;;;;;;;5053838;28;20052;-66
2023/01/24 07:06:10;;;;;;;15.25;9.25;;;;;;;;;;5071366;28;20497;-67
2023/01/24 07:08:36;;;;;;;20.10;10.32;;;;;;;;;;5053448;28;20040;-67
2023/01/24 07:11:02;;;;;;;17.95;10.30;;;;;;;;;;5053103;28;20102;-67
2023/01/24 07:13:28;;;;;;;19.60;10.98;;;;;;;;;;5071192;28;20044;-68
2023/01/24 07:15:53;;;;;;;20.00;10.75;;;2.90;99.90;;;;;;5053333;28;20545;-67
2023/01/24 07:18:20;;;;;;;16.48;10.70;;;;;;;;;;5071275;28;20182;-67
2023/01/24 07:20:46;;;;;;;17.60;10.32;;;;;;;;;;5045443;28;20065;-68
2023/01/24 07:23:23;;;;;;;14.90;9.52;;;;;;;;;;5053061;28;20072;-64
2023/01/24 07:25:49;;;;;;;15.40;8.48;;;;;;;;;;5053222;28;20393;-66
2023/01/24 07:28:15;;;;;;;18.05;9.70;;;;;;;;;;5070932;28;20040;-65
2023/01/24 07:30:41;;;;;;;16.83;9.98;;;;;;;;;;5070684;28;20477;-65
2023/01/24 07:33:07;;;;;;;18.13;8.10;;;;;;;;;;5052977;28;20044;-65
2023/01/24 07:35:33;;;;;;;18.67;10.80;;;;;;;;;;5052980;28;20052;-65
2023/01/24 07:38:00;;;;;;;15.32;9.30;;;;;;;;;;5052794;28;20048;-65
2023/01/24 07:40:26;;;;;;;15.52;8.77;;;3.10;99.90;;;;;;5071011;28;20505;-65
2023/01/24 07:42:52;;;;;;;14.40;9.95;;;;;;;;;;5070662;28;20060;-65
2023/01/24 07:45:20;;;;;;;17.25;9.70;;;;;;;;;;5070992;28;20119;-66
2023/01/24 07:47:46;;;;;;;16.27;9.63;;;;;;;;;;5052250;28;20410;-65
2023/01/24 07:50:12;;;;;;;18.13;10.50;;;;;;;;;;5070404;28;20033;-65
2023/01/24 07:52:38;;;;;;;16.48;9.57;;;;;;;;;;5070506;28;20040;-66
2023/01/24 07:55:04;;;;;;;16.60;9.88;;;3.00;99.90;;;;;;5052630;28;20051;-65
2023/01/24 07:57:30;;;;;;;15.73;10.25;;;;;;;;;;5052867;28;20151;-65
2023/01/24 07:59:56;;;;;;;18.83;11.80;;;;;;;;;;5070360;28;20171;-65
2023/01/24 08:02:22;;;;;;;15.20;9.60;;;;;;;;;;5052603;28;20044;-66
2023/01/24 08:04:48;;;;;;;16.40;9.90;;;;;;;;;;5051464;28;20049;-65
2023/01/24 08:07:17;;;;;;;18.42;10.38;;;;;;;;;;5070134;28;20047;-65
2023/01/24 08:09:43;;;;;;;17.20;10.40;;;;;;;;;;5059949;28;20044;-66
2023/01/24 08:12:09;;;;;;;15.68;9.50;;;;;;;;;;5069776;28;20044;-66
2023/01/24 08:14:35;;;;;;;19.63;10.35;;;;;;;;;;5059276;28;20044;-65
2023/01/24 08:20:08;;;;;;;16.58;9.50;;;;;;;;;;5051729;28;20693;-66
2023/01/24 08:25:40;;;;;;;15.57;8.32;;;;;;;;;;5150559;22;20501;-91
2023/01/24 08:28:06;;;;;;;21.40;9.93;;;;;;;;;;5016779;28;20053;-90
2023/01/24 08:30:32;;;;;;;16.92;9.90;;;;;;;;;;5016311;28;20032;-91
2023/01/24 08:33:02;;;;;;;16.73;10.30;;;;;;;;;;5014898;28;20040;-89
2023/01/24 08:35:29;;;;;;;17.48;10.52;;;;;;;;;;5016934;28;20772;-92
2023/01/24 08:37:55;;;;;;;17.55;10.18;;;;;;;;;;5017327;28;20041;-92
2023/01/24 08:40:21;;;;;;;19.58;10.80;;;;;;;;;;5028110;28;20065;-91
2023/01/24 08:42:47;;;;;;;15.77;8.85;;;;;;;;;;5016776;28;20036;-92
2023/01/24 08:45:13;;;;;;;17.75;10.60;;;;;;;;;;5016315;28;20044;-90
2023/01/24 08:47:39;;;;;;;16.77;9.38;;;;;;;;;;5013114;28;20084;-88
2023/01/24 08:50:06;;;;;;;17.55;8.80;;;;;;;;;;5015542;28;20033;-88
2023/01/24 08:52:32;;;;;;;16.42;10.05;;;;;;;;;;5015307;28;20049;-88
2023/01/24 08:54:58;;;;;;;18.50;10.38;;;;;;;;;;5014980;28;20457;-88
2023/01/24 08:57:24;;;;;;;14.75;9.52;;;;;;;;;;5003007;28;20037;-88
2023/01/24 08:59:50;;;;;;;11.43;7.15;;;;;;;;;;5029702;28;20041;-88
2023/01/24 09:02:16;;;;;;;16.67;10.25;;;;;;;;;;5024535;28;20442;-88
2023/01/24 09:04:42;;;;;;;14.60;9.60;;;;;;;;;;4999028;28;20136;-87
2023/01/24 09:07:09;;;;;;;14.68;9.15;;;;;;;;;;5002294;28;20041;-88
2023/01/24 09:09:35;;;;;;;19.00;9.00;;;;;;;;;;5031548;28;20048;-88
2023/01/24 09:12:00;;;;;;;16.17;10.05;;;;;;;;;;5017277;28;20118;-88
2023/01/24 09:14:26;;;;;;;17.25;9.70;;;;;;;;;;5015142;28;20048;-89
2023/01/24 09:16:52;;;;;;;16.73;10.30;;;;;;;;;;5016834;28;20045;-88
2023/01/24 09:19:18;;;;;;;18.30;10.45;;;;;;;;;;5009082;28;20106;-88
2023/01/24 09:21:47;;;;;;;18.48;10.80;;;;;;;;;;5019097;28;20048;-87
2023/01/24 09:24:13;;;;;;;20.02;10.82;;;;;;;;;;5029280;28;20057;-88
2023/01/24 09:26:39;;;;;;;17.50;10.27;;;;;;;;;;5022698;28;20049;-87
2023/01/24 09:29:05;;;;;;;17.88;10.50;;;;;;;;;;5024865;28;20045;-88
2023/01/24 09:31:31;;;;;;;19.25;11.13;;;;;;;;;;5006423;28;20045;-86
2023/01/24 09:33:57;;;;;;;17.80;9.85;;;;;;;;;;5013915;28;20124;-86
2023/01/24 09:36:23;;;;;;;17.73;10.13;;;;;;;;;;5024744;28;20124;-87
2023/01/24 09:38:49;;;;;;;19.98;11.40;;;;;;;;;;5005132;28;20041;-86
2023/01/24 09:41:21;;;;;;;18.27;11.32;;;;;;;;;;5008437;28;20487;-87
2023/01/24 09:43:54;;;;;;;18.13;10.73;;;;;;;;;;5019788;28;20045;-87
2023/01/24 09:46:26;;;;;;;18.90;11.38;;;;;;;;;;5009921;28;20064;-88
2023/01/24 09:49:00;;;;;;;16.92;10.68;;;;;;;;;;5028031;28;20043;-89
2023/01/24 09:51:28;;;;;;;18.88;11.40;;;;;;;;;;5027268;28;20041;-90
2023/01/24 09:53:55;;;;;;;16.88;9.90;;;;;;;;;;5004693;28;20079;-88
2023/01/24 09:56:30;;;;;;;17.67;10.35;;;;;;;;;;5266556;23;20052;-64
2023/01/24 09:59:23;;;;;;;19.15;11.02;;;3.20;99.90;;;;;;5030235;28;20049;-64
2023/01/24 10:01:50;;;;;;;16.58;9.93;;;3.20;99.90;;;;;;5018507;28;20486;-64
2023/01/24 10:04:36;;;;;;;19.60;10.25;;;2.70;99.90;;;;;;5030034;28;20409;-64
2023/01/24 10:07:14;;;;;;;16.85;9.68;;;;;;;;;;5046250;28;20095;-64
2023/01/24 10:10:01;;;;;;;15.95;9.63;;;;;;;;;;5017589;28;20041;-64
2023/01/24 10:12:36;;;;;;;15.98;9.50;;;;;;;;;;5029699;28;20073;-64
2023/01/24 10:15:20;;;;;;;15.07;10.43;;;;;;;;;;5029802;28;20048;-64
2023/01/24 10:18:05;;;;;;;15.35;9.45;;;;;;;;;;5036053;28;20052;-64
2023/01/24 10:20:45;;;;;;;15.95;9.45;;;3.40;99.90;;;;;;5010445;28;20530;-64
2023/01/24 10:23:16;;;;;;;16.45;9.57;;;;;;;;;;5010014;28;20045;-64
2023/01/24 10:25:51;;;;;;;18.48;9.80;;;;;;;;;;5027977;28;20049;-64
2023/01/24 10:28:33;;;;;;;16.38;9.88;;;3.40;99.90;;;;;;5016624;28;20048;-64
2023/01/24 10:31:06;;;;;;;17.33;10.68;;;;;;;;;;5019966;28;22111;-64
2023/01/24 10:33:37;;;;;;;17.02;9.65;;;3.50;99.90;;;;;;5033622;28;20049;-64
2023/01/24 10:36:11;;;;;;;19.55;11.25;;;;;;;;;;5020054;28;20034;-64
2023/01/24 10:38:37;;;;;;;15.75;9.88;;;;;;;;;;5031901;28;20040;-64
2023/01/24 10:41:09;;;;;;;15.70;10.07;;;3.20;99.90;;;;;;5014277;28;20041;-64
2023/01/24 10:43:35;;;;;;;15.60;10.43;;;;;;;;;;5018339;28;20132;-64
2023/01/24 10:46:16;;;;;;;17.58;10.25;;;;;;;;;;5032764;28;20052;-65
2023/01/24 10:48:42;;;;;;;19.10;8.43;;;;;;;;;;5015399;28;20037;-64
2023/01/24 10:51:18;;;;;;;16.25;9.88;;;;;;;;;;5031649;28;20042;-64
2023/01/24 10:53:45;;;;;;;15.68;9.88;;;;;;;;;;5013324;28;20041;-64
2023/01/24 10:56:13;;;;;;;18.77;9.98;;;3.20;99.90;;;;;;5038893;28;20056;-64
2023/01/24 10:58:44;;;;;;;16.10;9.27;;;;;;;;;;5019735;28;20076;-64
2023/01/24 11:01:20;;;;;;;15.70;10.40;;;;;;;;;;5014810;28;20465;-64
2023/01/24 11:03:48;;;;;;;16.60;10.68;;;3.30;99.90;;;;;;5033329;28;20048;-64
2023/01/24 11:06:43;;;;;;;18.15;10.70;;;;;;;;;;5017730;28;20041;-64
2023/01/24 11:09:10;;;;;;;16.05;9.73;;;;;;;;;;5001480;28;20064;-64
2023/01/24 11:11:40;;;;;;;18.02;10.32;;;;;;;;;;5020157;28;20514;-64
2023/01/24 11:14:11;;;;;;;17.38;9.48;;;;;;;;;;5033418;28;20407;-65
2023/01/24 11:16:42;;;;;;;15.60;9.40;;;;;;;;;;5031504;28;20083;-64
2023/01/24 11:19:20;;;;;;;17.30;9.90;;;;;;;;;;5031824;28;20045;-64
2023/01/24 11:21:52;;;;;;;16.23;10.02;;;;;;;;;;5030759;28;20037;-64
2023/01/24 11:24:19;;;;;;;16.92;9.90;;;3.30;99.90;;;;;;5036263;28;20041;-64
2023/01/24 11:27:13;;;;;;;14.98;9.15;;;3.40;99.90;;;;;;5018871;28;20052;-64
2023/01/24 11:29:39;;;;;;;19.42;10.90;;;;;;;;;;4998233;28;20407;-64
2023/01/24 11:32:24;;;;;;;17.70;10.25;;;;;;;;;;5017102;28;20072;-64
2023/01/24 11:35:11;;;;;;;15.87;10.00;;;3.30;99.90;;;;;;5048401;28;20047;-64
2023/01/24 11:37:58;;;;;;;19.40;10.85;;;3.40;99.90;;;;;;5036450;28;20574;-64
2023/01/24 11:46:42;;;;;;;17.85;11.35;;;;;;;;;;5443604;23;20061;-64
2023/01/24 11:49:11;;;;;;;18.25;11.10;;;;;;;;;;4972516;28;20058;-64
2023/01/24 11:51:53;;;;;;;18.92;11.27;;;;;;;;;;4964820;28;20042;-64
2023/01/24 11:54:47;;;;;;;14.25;9.93;;;3.40;99.90;;;;;;4969737;28;20493;-64
2023/01/24 11:57:27;;;;;;;15.75;9.63;;;;;;;;;;4947746;28;20126;-64
2023/01/24 12:00:00;;;;;;;16.50;10.50;;;;;;;;;;4952186;28;20062;-65
2023/01/24 12:03:05;;;;;;;15.82;10.27;;;3.30;99.90;;;;;;4976807;28;20517;-65
2023/01/24 12:05:37;;;;;;;16.80;9.83;;;;;;;;;;4912479;28;20122;-64
2023/01/24 12:08:29;;;;;;;17.55;11.27;;;3.40;99.90;;;;;;4961942;28;20290;-64
2023/01/24 12:11:20;;;;;;;16.02;9.63;;;3.50;99.90;;;;;;4947941;28;20051;-64
2023/01/24 12:14:02;;;;;;;16.38;9.57;;;;;;;;;;4934599;28;20051;-64
2023/01/24 12:17:03;;;;;;;18.17;10.30;;;3.50;99.90;;;;;;4935997;28;20043;-64
2023/01/24 12:19:49;;;;;;;18.58;10.95;;;3.20;99.90;;;;;;4957756;28;20038;-65
2023/01/24 12:22:20;;;;;;;19.83;11.10;;;;;;;;;;4971375;28;20038;-64
2023/01/24 12:24:48;;;;;;;15.77;10.23;;;;;;;;;;4953450;28;20058;-64
2023/01/24 12:27:25;;;;;;;16.60;9.63;;;;;;;;;;4952748;28;20440;-64
2023/01/24 12:30:40;;;;;;;18.70;11.15;;;3.30;99.90;;;;;;4954288;28;20168;-64
2023/01/24 12:33:06;;;;;;;16.60;10.32;;;;;;;;;;4910816;28;20058;-64
2023/01/24 12:35:35;;;;;;;18.00;11.07;;;;;;;;;;4954269;28;20434;-64
2023/01/24 12:38:22;;;;;;;19.13;11.35;;;3.10;99.90;;;;;;4953150;28;20054;-64
2023/01/24 12:40:54;;;;;;;17.35;10.68;;;;;;;;;;4953324;28;20129;-64
2023/01/24 12:43:20;;;;;;;18.15;10.93;;;;;;;;;;4940751;28;20052;-64
2023/01/24 12:46:07;;;;;;;17.27;10.07;;;;;;;;;;4947968;28;20416;-64
2023/01/24 12:48:36;;;;;;;21.23;11.43;;;;;;;;;;4946748;28;20061;-64
2023/01/24 12:51:16;;;;;;;19.67;12.38;;;;;;;;;;4962321;28;20046;-64
2023/01/24 12:54:02;;;;;;;18.90;10.48;;;2.90;99.90;;;;;;4970898;28;20057;-64
2023/01/24 12:56:33;;;;;;;18.38;11.50;;;;;;;;;;4950208;28;20050;-64
2023/01/24 12:58:59;;;;;;;17.48;11.18;;;;;;;;;;4958830;28;20572;-64
2023/01/24 13:01:26;;;;;;;17.08;11.38;;;;;;;;;;4966664;28;20043;-64
2023/01/24 13:04:32;;;;;;;18.58;11.13;;;2.70;99.90;;;;;;4951436;28;20055;-64
2023/01/24 13:07:17;;;;;;;19.05;11.48;;;;;;;;;;4957573;28;20058;-64
2023/01/24 13:10:21;;;;;;;18.20;10.88;;;3.00;99.90;;;;;;4951172;28;20736;-64
2023/01/24 13:12:47;;;;;;;17.02;10.82;;;;;;;;;;4904765;28;20129;-64
2023/01/24 13:15:16;;;;;;;18.17;10.32;;;;;;;;;;4951310;28;20055;-64
2023/01/24 13:17:54;;;;;;;20.35;11.73;;;;;;;;;;4938976;28;20042;-64
2023/01/24 13:20:38;;;;;;;19.17;10.90;;;;;;;;;;4940260;29;20051;-64
2023/01/24 13:23:23;;;;;;;21.50;11.25;;;;;;;;;;4933320;28;20409;-64
2023/01/24 13:26:08;;;;;;;17.88;10.70;;;;;;;;;;4937727;28;20054;-64
2023/01/24 13:28:45;;;;;;;16.27;10.60;;;;;;;;;;4961736;28;20066;-64
2023/01/24 13:31:21;;;;;;;16.20;9.45;;;3.30;99.90;;;;;;4942823;28;20497;-64
2023/01/24 13:33:52;;;;;;;19.25;11.82;;;3.30;99.90;;;;;;4949995;28;20078;-64
2023/01/24 13:36:34;;;;;;;18.65;11.90;;;;;;;;;;4937014;28;20039;-64
2023/01/24 13:39:01;;;;;;;19.38;10.32;;;3.00;99.90;;;;;;4938098;28;20039;-65
2023/01/24 13:41:27;;;;;;;18.15;10.68;;;;;;;;;;4952820;28;20125;-64
2023/01/24 13:44:04;;;;;;;16.13;10.85;;;;;;;;;;4950853;28;20071;-64
2023/01/24 13:46:45;;;;;;;17.02;10.15;;;;;;;;;;4933414;28;20408;-65
2023/01/24 13:49:29;;;;;;;17.50;10.25;;;;;;;;;;4933074;28;20039;-64
2023/01/24 13:51:56;;;;;;;17.42;10.77;;;;;;;;;;4957382;28;20077;-65
2023/01/24 13:54:31;;;;;;;20.50;12.45;;;;;;;;;;4961571;28;20050;-64
2023/01/24 13:57:05;;;;;;;18.63;10.52;;;;;;;;;;4962530;28;20545;-64
2023/01/24 13:59:38;;;;;;;18.73;10.60;;;;;;;;;;4963752;28;20098;-65
2023/01/24 14:02:24;;;;;;;18.50;11.15;;;;;;;;;;4950009;28;20043;-64
2023/01/24 14:04:50;;;;;;;19.60;11.25;;;2.80;99.90;;;;;;4940317;28;20519;-65
2023/01/24 14:07:19;;;;;;;17.02;10.70;;;;;;;;;;4937991;28;20035;-65
2023/01/24 14:09:46;;;;;;;18.55;12.15;;;;;;;;;;4948101;28;20039;-64
2023/01/24 14:12:18;;;;;;;20.08;11.02;;;;;;;;;;4952574;28;20061;-65
2023/01/24 14:14:59;;;;;;;18.63;11.75;;;;;;;;;;4969219;28;20046;-65
2023/01/24 14:17:43;;;;;;;16.42;10.80;;;2.80;99.90;;;;;;4946823;28;20043;-64
2023/01/24 14:20:36;;;;;;;17.77;11.25;;;2.90;99.90;;;;;;4932753;29;20061;-65
2023/01/24 14:23:05;;;;;;;16.77;10.23;;;;;;;;;;4957236;28;20507;-65
2023/01/24 14:25:37;;;;;;;18.77;10.95;;;;;;;;;;4951831;28;20066;-65
2023/01/24 14:28:22;;;;;;;18.25;11.30;;;;;;;;;;4939335;28;20050;-65
2023/01/24 14:30:57;;;;;;;14.97;9.23;;;2.90;99.90;;;;;;4952958;28;20061;-65
2023/01/24 14:33:33;;;;;;;18.90;12.35;;;;;;;;;;4962497;28;20059;-64
2023/01/24 14:36:08;;;;;;;17.27;11.38;;;;;;;;;;4969008;28;20102;-64
2023/01/24 14:38:34;;;;;;;21.03;12.80;;;;;;;;;;4951517;28;20047;-65
2023/01/24 14:41:00;;;;;;;20.92;12.20;;;;;;;;;;4951572;28;20053;-65
2023/01/24 14:43:34;;;;;;;16.90;10.95;;;;;;;;;;4958612;28;20050;-65
2023/01/24 14:46:19;;;;;;;17.73;11.05;;;;;;;;;;4973817;28;20708;-65
2023/01/24 14:48:45;;;;;;;18.60;11.83;;;;;;;;;;4961833;28;20146;-65
2023/01/24 14:51:17;;;;;;;18.90;11.35;;;2.90;99.90;;;;;;4940703;28;20758;-65
2023/01/24 14:53:48;;;;;;;19.13;11.13;;;;;;;;;;4951224;28;20436;-63
2023/01/24 14:56:14;;;;;;;16.33;10.88;;;;;;;;;;4968638;28;20081;-63
2023/01/24 14:58:40;;;;;;;20.25;12.02;;;;;;;;;;4971052;28;20046;-63
2023/01/24 15:01:27;;;;;;;19.75;11.70;;;2.90;99.90;;;;;;4983418;28;20034;-63
2023/01/24 15:03:55;;;;;;;19.73;11.30;;;;;;;;;;4961039;28;20142;-63